Time;durP1;ratioP1;P1;durP2;ratioP2;P2;SDS_P1;SDS_P2;PMS_P1;PMS_P2;Temp;Humidity;BMP_temperature;BMP_pressure;BME280_temperature;BME280_humidity;BME280_pressure;Samples;Min_cycle;Max_cycle;Signal;HPM_P1;HPM_P2
2022/05/12 00:02:01;;;;;;;7.63;3.10;;;;;;;;;;5003391;28;20018;-78
2022/05/12 00:04:31;;;;;;;7.75;3.45;;;;;;;;;;5011728;28;20188;-78
2022/05/12 00:06:57;;;;;;;11.10;3.70;;;;;;;;;;5020139;28;20030;-77
2022/05/12 00:09:23;;;;;;;8.63;3.65;;;;;;;;;;4986445;28;20045;-78
2022/05/12 00:11:52;;;;;;;8.93;3.08;;;;;;;;;;4968171;28;20018;-76
2022/05/12 00:14:18;;;;;;;5.60;3.40;;;;;;;;;;4996376;28;20394;-76
2022/05/12 00:16:43;;;;;;;6.93;3.15;;;;;;;;;;4997049;28;20033;-79
2022/05/12 00:19:09;;;;;;;5.25;2.55;;;;;;;;;;4999681;28;20033;-78
2022/05/12 00:21:34;;;;;;;11.13;3.00;;;;;;;;;;5013796;28;20084;-77
2022/05/12 00:24:00;;;;;;;7.95;2.78;;;;;;;;;;5015506;28;20057;-78
2022/05/12 00:26:27;;;;;;;4.78;2.60;;;;;;;;;;4995547;28;20088;-76
2022/05/12 00:28:53;;;;;;;7.85;2.53;;;;;;;;;;5006773;28;20030;-76
2022/05/12 00:31:19;;;;;;;7.45;2.65;;;;;;;;;;5014386;28;20094;-78
2022/05/12 00:33:45;;;;;;;5.18;2.67;;;;;;;;;;5013578;28;20493;-78
2022/05/12 00:36:10;;;;;;;6.03;2.60;;;;;;;;;;4996885;28;20090;-77
2022/05/12 00:38:36;;;;;;;7.00;2.40;;;;;;;;;;5015416;28;20033;-78
2022/05/12 00:41:01;;;;;;;5.28;2.60;;;;;;;;;;5014044;28;20030;-79
2022/05/12 00:43:41;;;;;;;7.85;2.35;;;;;;;;;;5016471;28;20337;-78
2022/05/12 00:46:09;;;;;;;5.72;2.30;;;;;;;;;;4996667;28;20025;-80
2022/05/12 00:48:35;;;;;;;10.65;2.40;;;;;;;;;;4980404;28;20116;-79
2022/05/12 00:51:01;;;;;;;5.55;2.35;;;;;;;;;;4996899;28;20062;-79
2022/05/12 00:53:28;;;;;;;6.40;2.13;;;;;;;;;;4997396;28;20026;-79
2022/05/12 00:55:54;;;;;;;9.80;2.13;;;;;;;;;;4983451;28;20030;-79
2022/05/12 00:58:21;;;;;;;4.90;2.50;;;;;;;;;;5014611;28;20041;-78
2022/05/12 01:00:46;;;;;;;6.57;2.35;;;;;;;;;;4995138;28;20026;-78
2022/05/12 01:03:19;;;;;;;5.78;2.10;;;;;;;;;;5012514;28;20535;-79
2022/05/12 01:05:45;;;;;;;6.47;2.38;;;;;;;;;;4996225;28;20493;-76
2022/05/12 01:08:12;;;;;;;8.35;2.45;;;;;;;;;;5012621;28;20112;-76
2022/05/12 01:10:39;;;;;;;5.78;2.13;;;;;;;;;;5012739;28;20062;-78
2022/05/12 01:13:04;;;;;;;8.48;2.00;;;;;;;;;;5012387;28;20026;-77
2022/05/12 01:15:30;;;;;;;11.90;3.35;;;;;;;;;;4996054;28;20113;-76
2022/05/12 01:18:06;;;;;;;6.85;2.15;;;;;;;;;;4987824;28;20064;-78
2022/05/12 01:20:33;;;;;;;7.18;2.55;;;;;;;;;;4987857;28;20038;-77
2022/05/12 01:23:17;;;;;;;4.07;2.10;;;;;;;;;;4987398;28;20042;-78
2022/05/12 01:25:43;;;;;;;3.63;2.08;;;;;;;;;;4990484;28;20070;-76
2022/05/12 01:28:08;;;;;;;4.10;2.00;;;;;;;;;;5000067;28;20042;-77
2022/05/12 01:30:33;;;;;;;10.10;2.00;;;;;;;;;;4998974;28;20030;-79
2022/05/12 01:32:59;;;;;;;8.50;2.03;;;;;;;;;;4960882;28;20027;-79
2022/05/12 01:35:25;;;;;;;7.18;2.58;;;;;;;;;;4997661;28;20473;-78
2022/05/12 01:37:51;;;;;;;5.40;1.77;;;;;;;;;;5000477;28;20401;-78
2022/05/12 01:40:18;;;;;;;3.40;1.90;;;;;;;;;;4992673;28;20048;-77
2022/05/12 01:42:45;;;;;;;5.70;1.77;;;;;;;;;;4995645;28;20033;-77
2022/05/12 01:45:14;;;;;;;7.55;1.88;;;;;;;;;;4980943;28;20034;-79
2022/05/12 01:47:40;;;;;;;10.68;3.45;;;;;;;;;;4996403;28;20290;-78
2022/05/12 01:50:07;;;;;;;8.07;1.98;;;;;;;;;;4996219;28;20037;-77
2022/05/12 01:52:32;;;;;;;6.35;1.80;;;;;;;;;;5011685;28;20030;-77
2022/05/12 01:54:58;;;;;;;5.82;1.77;;;;;;;;;;5008905;28;20033;-78
2022/05/12 01:57:23;;;;;;;6.82;2.00;;;;;;;;;;4994945;28;20104;-77
2022/05/12 01:59:50;;;;;;;6.68;1.88;;;;;;;;;;5012532;28;20030;-78
2022/05/12 02:02:15;;;;;;;5.65;1.80;;;;;;;;;;4994915;28;20022;-77
2022/05/12 02:04:41;;;;;;;7.88;1.67;;;;;;;;;;5012066;28;20038;-78
2022/05/12 02:07:07;;;;;;;6.63;1.85;;;;;;;;;;5012328;28;20049;-79
2022/05/12 02:09:35;;;;;;;3.83;1.75;;;;;;;;;;5011684;28;20118;-78
2022/05/12 02:12:00;;;;;;;6.68;1.63;;;;;;;;;;5014740;28;20109;-78
2022/05/12 02:14:27;;;;;;;6.03;1.80;;;;;;;;;;5012162;28;20124;-77
2022/05/12 02:16:52;;;;;;;6.93;1.63;;;;;;;;;;5012560;28;20080;-77
2022/05/12 02:19:18;;;;;;;7.90;1.80;;;;;;;;;;4995172;28;20417;-77
2022/05/12 02:21:44;;;;;;;5.25;1.90;;;;;;;;;;5012474;28;20040;-78
2022/05/12 02:24:10;;;;;;;6.03;2.78;;;;;;;;;;5011982;28;20105;-78
2022/05/12 02:26:36;;;;;;;6.78;1.70;;;;;;;;;;4991508;28;20034;-77
2022/05/12 02:29:03;;;;;;;3.97;1.70;;;;;;;;;;5006699;28;20065;-78
2022/05/12 02:31:29;;;;;;;6.82;1.52;;;;;;;;;;5015726;28;20026;-78
2022/05/12 02:33:55;;;;;;;3.88;1.63;;;;;;;;;;4995018;28;20518;-77
2022/05/12 02:36:20;;;;;;;3.75;1.73;;;;;;;;;;5012140;28;20026;-78
2022/05/12 02:38:46;;;;;;;3.95;1.63;;;;;;;;;;5012569;28;20038;-78
2022/05/12 02:41:14;;;;;;;7.03;1.70;;;;;;;;;;4978923;28;20038;-78
2022/05/12 02:43:39;;;;;;;5.20;1.73;;;;;;;;;;4985635;28;20036;-77
2022/05/12 02:46:07;;;;;;;4.10;1.45;;;;;;;;;;5009184;28;20490;-79
2022/05/12 02:48:34;;;;;;;4.45;1.60;;;;;;;;;;5016682;28;20575;-78
2022/05/12 02:51:00;;;;;;;5.55;1.67;;;;;;;;;;5015115;28;20034;-78
2022/05/12 02:53:28;;;;;;;7.43;1.80;;;;;;;;;;5014372;28;20034;-77
2022/05/12 02:55:54;;;;;;;4.20;1.85;;;;;;;;;;5015604;28;20045;-77
2022/05/12 02:58:19;;;;;;;10.60;2.13;;;;;;;;;;5014796;28;20425;-77
2022/05/12 03:00:46;;;;;;;7.75;2.20;;;;;;;;;;5006292;28;20030;-77
2022/05/12 03:03:12;;;;;;;6.25;2.30;;;;;;;;;;5014711;28;20030;-78
2022/05/12 03:05:37;;;;;;;6.90;2.58;;;;;;;;;;5015031;28;20038;-78
2022/05/12 03:08:07;;;;;;;6.22;2.63;;;;;;;;;;4983176;28;20037;-77
2022/05/12 03:10:34;;;;;;;8.35;2.85;;;;;;;;;;5015862;28;20457;-77
2022/05/12 03:12:59;;;;;;;7.68;2.60;;;;;;;;;;5015802;28;20419;-77
2022/05/12 03:15:25;;;;;;;8.93;2.80;;;;;;;;;;4993989;28;20030;-77
2022/05/12 03:17:51;;;;;;;7.13;2.72;;;;;;;;;;4990657;28;20025;-77
2022/05/12 03:20:18;;;;;;;7.30;2.72;;;;;;;;;;5014715;28;20046;-75
2022/05/12 03:22:44;;;;;;;9.40;3.58;;;;;;;;;;4998898;28;20034;-76
2022/05/12 03:25:16;;;;;;;9.32;2.75;;;;;;;;;;4999499;28;20401;-80
2022/05/12 03:27:41;;;;;;;8.45;2.95;;;;;;;;;;5014223;28;20030;-76
2022/05/12 03:30:12;;;;;;;9.02;2.55;;;;;;;;;;5015849;28;20028;-78
2022/05/12 03:32:41;;;;;;;8.90;2.60;;;;;;;;;;4974572;28;20036;-79
2022/05/12 03:35:07;;;;;;;8.98;2.45;;;;;;;;;;5011310;28;20104;-77
2022/05/12 03:37:36;;;;;;;6.68;2.60;;;;;;;;;;5015245;28;20061;-77
2022/05/12 03:40:03;;;;;;;10.07;2.63;;;;;;;;;;4997468;28;20025;-77
2022/05/12 03:42:28;;;;;;;11.55;2.67;;;;;;;;;;5014965;28;20492;-77
2022/05/12 03:44:54;;;;;;;10.10;2.55;;;;;;;;;;4981300;28;20124;-78
2022/05/12 03:47:21;;;;;;;12.10;3.28;;;;;;;;;;4997477;28;20076;-79
2022/05/12 03:49:51;;;;;;;9.80;2.75;;;;;;;;;;4997320;28;20060;-77
2022/05/12 03:52:17;;;;;;;12.38;3.53;;;;;;;;;;5005507;28;20018;-78
2022/05/12 03:54:42;;;;;;;8.63;2.80;;;;;;;;;;5015285;28;20526;-77
2022/05/12 03:57:08;;;;;;;11.40;2.78;;;;;;;;;;5013262;28;20030;-78
2022/05/12 03:59:34;;;;;;;6.63;2.47;;;;;;;;;;5014391;28;20500;-77
2022/05/12 04:02:00;;;;;;;8.70;2.60;;;;;;;;;;5014423;28;20030;-78
2022/05/12 04:04:29;;;;;;;8.27;2.65;;;;;;;;;;4999185;28;20513;-79
2022/05/12 04:06:58;;;;;;;6.60;2.42;;;;;;;;;;4993891;28;20037;-78
2022/05/12 04:09:24;;;;;;;10.90;2.60;;;;;;;;;;4973926;28;20030;-78
2022/05/12 04:11:49;;;;;;;10.43;3.47;;;;;;;;;;4996502;28;20511;-78
2022/05/12 04:14:15;;;;;;;7.15;2.92;;;;;;;;;;4979304;28;20402;-77
2022/05/12 04:16:40;;;;;;;9.43;3.35;;;;;;;;;;4997766;28;20034;-78
2022/05/12 04:19:06;;;;;;;7.75;2.42;;;;;;;;;;4995983;28;20042;-77
2022/05/12 04:21:34;;;;;;;12.15;2.88;;;;;;;;;;4979757;28;20280;-78
2022/05/12 04:24:05;;;;;;;9.65;2.65;;;;;;;;;;5012062;28;20026;-79
2022/05/12 04:26:32;;;;;;;7.57;2.50;;;;;;;;;;5015707;28;20485;-78
2022/05/12 04:28:57;;;;;;;10.68;3.20;;;;;;;;;;5012706;28;20030;-77
2022/05/12 04:31:22;;;;;;;7.32;2.85;;;;;;;;;;5013935;28;20121;-81
2022/05/12 04:36:39;;;;;;;7.32;2.38;;;;;;;;;;5011831;28;20025;-79
2022/05/12 04:39:06;;;;;;;8.35;2.28;;;;;;;;;;4974004;28;20030;-79
2022/05/12 04:41:31;;;;;;;7.38;2.65;;;;;;;;;;4988265;28;20061;-79
2022/05/12 04:43:58;;;;;;;5.28;2.10;;;;;;;;;;4995937;28;20061;-83
2022/05/12 04:46:26;;;;;;;12.13;2.20;;;;;;;;;;4996907;28;20034;-81
2022/05/12 04:48:52;;;;;;;6.00;2.10;;;;;;;;;;5014220;28;20087;-79
2022/05/12 04:51:18;;;;;;;9.10;2.42;;;;;;;;;;4996452;28;20030;-78
2022/05/12 04:53:43;;;;;;;5.15;2.10;;;;;;;;;;5012554;28;20373;-78
2022/05/12 04:56:09;;;;;;;6.68;1.83;;;;;;;;;;5002723;28;20485;-78
2022/05/12 04:58:34;;;;;;;3.28;1.55;;;;;;;;;;5013609;28;20030;-79
2022/05/12 05:00:59;;;;;;;12.75;2.47;;;;;;;;;;5015389;28;20065;-79
2022/05/12 05:03:25;;;;;;;7.90;1.83;;;;;;;;;;5014522;28;20049;-79
2022/05/12 05:05:51;;;;;;;5.50;1.30;;;;;;;;;;5012498;28;20553;-81
2022/05/12 05:08:18;;;;;;;6.60;1.20;;;;;;;;;;5013008;28;20056;-79
2022/05/12 05:10:47;;;;;;;17.80;2.78;;;;;;;;;;4979716;28;20025;-79
2022/05/12 05:13:13;;;;;;;5.05;1.13;;;;;;;;;;5000152;28;20157;-80
2022/05/12 05:15:38;;;;;;;5.70;1.33;;;;;;;;;;4996169;28;20054;-79
2022/05/12 05:18:04;;;;;;;2.88;1.17;;;;;;;;;;4995964;28;20496;-79
2022/05/12 05:20:30;;;;;;;5.80;1.35;;;;;;;;;;5013659;28;20484;-78
2022/05/12 05:22:55;;;;;;;2.03;0.82;;;;;;;;;;5013409;28;20041;-79
2022/05/12 05:25:21;;;;;;;7.72;1.92;;;;;;;;;;5012316;28;20501;-80
2022/05/12 05:27:47;;;;;;;10.60;1.60;;;;;;;;;;5008785;28;20032;-79
2022/05/12 05:30:17;;;;;;;5.93;1.52;;;;;;;;;;4979787;28;20157;-79
2022/05/12 05:32:42;;;;;;;3.97;0.98;;;;;;;;;;4980923;28;20057;-79
2022/05/12 05:35:08;;;;;;;10.35;1.63;;;;;;;;;;4995714;28;20486;-82
2022/05/12 05:37:36;;;;;;;5.70;1.20;;;;;;;;;;4980990;28;20077;-78
2022/05/12 05:40:04;;;;;;;3.63;1.10;;;;;;;;;;4997442;28;20033;-79
2022/05/12 05:42:30;;;;;;;6.93;1.65;;;;;;;;;;4995763;28;20034;-81
2022/05/12 05:44:55;;;;;;;9.50;1.02;;;;;;;;;;4966749;28;20564;-79
2022/05/12 05:47:21;;;;;;;4.55;1.17;;;;;;;;;;5003874;28;20038;-80
2022/05/12 05:49:46;;;;;;;3.35;1.15;;;;;;;;;;4996558;28;20036;-79
2022/05/12 05:54:59;;;;;;;6.35;1.38;;;;;;;;;;4997196;28;20099;-80
2022/05/12 05:57:25;;;;;;;3.55;1.00;;;;;;;;;;5014165;28;20473;-83
2022/05/12 06:00:04;;;;;;;3.65;1.10;;;;;;;;;;4982499;28;20560;-80
2022/05/12 06:02:31;;;;;;;4.57;1.08;;;;;;;;;;5018316;28;20084;-79
2022/05/12 06:04:56;;;;;;;12.95;1.98;;;;;;;;;;5019706;28;20030;-79
2022/05/12 06:07:22;;;;;;;9.05;1.70;;;;;;;;;;5003304;28;20034;-78
2022/05/12 06:09:50;;;;;;;;;;;;;;;;;;4986367;28;20026;-78
2022/05/12 06:12:16;;;;;;;6.38;1.30;;;;;;;;;;5018679;28;20332;-78
2022/05/12 06:14:44;;;;;;;7.35;1.20;;;;;;;;;;4984081;28;20485;-78
2022/05/12 06:17:10;;;;;;;2.92;1.30;;;;;;;;;;5013454;28;20022;-78
2022/05/12 06:19:35;;;;;;;4.18;1.17;;;;;;;;;;5001805;28;20568;-79
2022/05/12 06:22:01;;;;;;;4.30;1.08;;;;;;;;;;5014292;28;20037;-79
2022/05/12 06:24:27;;;;;;;6.18;1.30;;;;;;;;;;5012756;28;20033;-79
2022/05/12 06:26:52;;;;;;;4.22;1.20;;;;;;;;;;5012722;28;20030;-78
2022/05/12 06:29:21;;;;;;;4.90;1.25;;;;;;;;;;4995477;28;20041;-78
2022/05/12 06:31:47;;;;;;;1.17;0.70;;;;;;;;;;5012012;28;20029;-78
2022/05/12 06:34:16;;;;;;;3.40;1.10;;;;;;;;;;4993614;28;20119;-78
2022/05/12 06:36:41;;;;;;;8.43;1.27;;;;;;;;;;4986299;28;20065;-78
2022/05/12 06:39:07;;;;;;;6.00;1.80;;;;;;;;;;4978329;28;20091;-80
2022/05/12 06:41:33;;;;;;;5.95;0.95;;;;;;;;;;5010818;28;20022;-78
2022/05/12 06:44:00;;;;;;;7.82;1.10;;;;;;;;;;5011894;28;20030;-78
2022/05/12 06:46:25;;;;;;;7.90;1.00;;;;;;;;;;5011503;28;20105;-79
2022/05/12 06:48:51;;;;;;;5.40;1.35;;;;;;;;;;4995171;28;20116;-78
2022/05/12 06:51:18;;;;;;;9.48;1.20;;;;;;;;;;4998469;28;20026;-81
2022/05/12 06:53:44;;;;;;;6.00;1.17;;;;;;;;;;4976258;28;20053;-79
2022/05/12 06:56:10;;;;;;;5.63;1.23;;;;;;;;;;4994824;28;20022;-80
2022/05/12 06:58:36;;;;;;;7.55;1.40;;;;;;;;;;4992916;28;20501;-80
2022/05/12 07:01:02;;;;;;;8.48;1.20;;;;;;;;;;4991056;28;20509;-79
2022/05/12 07:03:29;;;;;;;5.00;1.00;;;;;;;;;;4990915;28;20041;-83
2022/05/12 07:05:54;;;;;;;2.63;1.00;;;;;;;;;;4990787;28;20074;-83
2022/05/12 07:08:20;;;;;;;7.82;1.52;;;;;;;;;;4990435;28;20065;-79
2022/05/12 07:10:46;;;;;;;8.10;1.13;;;;;;;;;;4985600;28;20038;-81
2022/05/12 07:13:19;;;;;;;3.90;0.93;;;;;;;;;;4989573;28;20505;-79
2022/05/12 07:15:47;;;;;;;3.97;0.77;;;;;;;;;;5011724;28;20401;-81
2022/05/12 07:18:13;;;;;;;5.13;0.90;;;;;;;;;;4978082;28;20048;-81
2022/05/12 07:28:51;;;;;;;5.00;1.55;;;;;;;;;;4995250;28;20059;-82
2022/05/12 07:31:17;;;;;;;7.45;1.10;;;;;;;;;;4962628;28;20418;-80
2022/05/12 07:33:44;;;;;;;7.78;1.38;;;;;;;;;;4996941;28;20038;-78
2022/05/12 07:36:14;;;;;;;5.40;1.10;;;;;;;;;;5013363;28;20146;-79
2022/05/12 07:38:40;;;;;;;7.10;1.10;;;;;;;;;;4997173;28;20038;-79
2022/05/12 07:41:09;;;;;;;7.25;1.77;;;;;;;;;;4965101;28;20042;-77
2022/05/12 07:43:35;;;;;;;11.45;0.90;;;;;;;;;;4979635;28;20042;-79
2022/05/12 07:46:00;;;;;;;4.10;0.60;;;;;;;;;;4988997;28;20397;-79
2022/05/12 07:48:26;;;;;;;3.83;1.40;;;;;;;;;;4997346;28;20497;-79
2022/05/12 07:50:51;;;;;;;3.63;1.13;;;;;;;;;;4997505;28;20041;-77
2022/05/12 07:53:16;;;;;;;8.52;1.60;;;;;;;;;;4996742;28;20397;-77
2022/05/12 07:55:45;;;;;;;10.70;1.05;;;;;;;;;;5013925;28;20034;-81
2022/05/12 07:58:17;;;;;;;2.13;0.55;;;;;;;;;;4982062;28;20056;-78
2022/05/12 08:00:45;;;;;;;;;;;;;;;;;;5013071;28;20036;-78
2022/05/12 08:03:11;;;;;;;5.57;0.60;;;;;;;;;;4988324;28;19909;-76
2022/05/12 08:05:37;;;;;;;5.82;0.80;;;;;;;;;;5014636;28;20045;-75
2022/05/12 08:08:04;;;;;;;4.80;0.70;;;;;;;;;;5012815;28;20033;-78
2022/05/12 08:10:30;;;;;;;5.47;1.00;;;;;;;;;;5014356;28;20531;-78
2022/05/12 08:12:56;;;;;;;3.85;0.88;;;;;;;;;;5012826;28;20030;-77
2022/05/12 08:15:25;;;;;;;3.67;0.68;;;;;;;;;;5014417;28;20062;-77
2022/05/12 08:17:51;;;;;;;7.28;0.73;;;;;;;;;;5008624;28;20036;-77
2022/05/12 08:20:16;;;;;;;9.90;1.50;;;;;;;;;;5013677;28;20469;-77
2022/05/12 08:22:42;;;;;;;9.60;1.10;;;;;;;;;;5013340;28;20117;-77
2022/05/12 08:25:08;;;;;;;5.82;0.80;;;;;;;;;;4996297;28;20083;-77
2022/05/12 08:27:34;;;;;;;3.60;0.80;;;;;;;;;;5013486;28;20030;-77
2022/05/12 08:29:59;;;;;;;3.92;0.60;;;;;;;;;;5013420;28;20030;-77
2022/05/12 08:32:25;;;;;;;7.78;1.13;;;;;;;;;;5012272;28;20164;-77
2022/05/12 08:34:51;;;;;;;5.50;0.95;;;;;;;;;;5005757;28;20029;-76
2022/05/12 08:37:17;;;;;;;5.07;0.90;;;;;;;;;;5013340;28;20104;-76
2022/05/12 08:39:44;;;;;;;3.17;0.68;;;;;;;;;;4995974;28;20535;-76
2022/05/12 08:42:18;;;;;;;5.68;0.90;;;;;;;;;;5013297;28;20033;-76
2022/05/12 08:44:44;;;;;;;2.63;0.70;;;;;;;;;;5011494;28;20034;-75
2022/05/12 08:47:12;;;;;;;7.13;1.02;;;;;;;;;;5011714;28;20034;-76
2022/05/12 08:50:03;;;;;;;5.25;0.98;;;;;;;;;;5013103;28;20060;-77
2022/05/12 08:52:29;;;;;;;4.18;1.33;;;;;;;;;;4987915;28;20048;-75
2022/05/12 08:54:54;;;;;;;4.78;1.00;;;;;;;;;;4969082;28;20034;-77
2022/05/12 08:57:28;;;;;;;5.75;0.90;;;;;;;;;;4993503;28;20027;-77
2022/05/12 08:59:54;;;;;;;3.20;0.57;;;;;;;;;;4992097;28;20026;-76
2022/05/12 09:02:31;;;;;;;11.75;1.40;;;;;;;;;;4975935;28;20042;-76
2022/05/12 09:05:00;;;;;;;6.38;1.13;;;;;;;;;;4975230;28;20569;-77
2022/05/12 09:07:30;;;;;;;4.30;0.90;;;;;;;;;;4991816;28;20034;-76
2022/05/12 09:10:08;;;;;;;4.05;0.98;;;;;;;;;;4975761;28;20030;-76
2022/05/12 09:12:37;;;;;;;2.88;0.70;;;;;;;;;;4991984;28;20528;-77
2022/05/12 09:15:23;;;;;;;8.15;1.58;;;;;;;;;;4975529;28;20516;-76
2022/05/12 09:17:54;;;;;;;3.83;0.90;;;;;;;;;;4993337;28;20100;-77
2022/05/12 09:20:20;;;;;;;4.10;0.80;;;;;;;;;;4993223;28;20076;-76
2022/05/12 09:22:45;;;;;;;1.92;0.60;;;;;;;;;;4992585;28;20073;-76
2022/05/12 09:25:26;;;;;;;1.85;0.73;;;;;;;;;;4997991;28;20396;-76
2022/05/12 09:27:52;;;;;;;2.10;0.60;;;;;;;;;;4978445;28;20030;-78
2022/05/12 09:30:29;;;;;;;3.75;0.70;;;;;;;;;;4991829;28;20028;-77
2022/05/12 09:32:58;;;;;;;5.72;1.20;;;;;;;;;;4975341;28;20485;-77
2022/05/12 09:35:25;;;;;;;3.10;0.80;;;;;;;;;;4975302;28;20117;-76
2022/05/12 09:37:51;;;;;;;2.58;0.70;;;;;;;;;;4991305;28;20042;-75
2022/05/12 09:40:16;;;;;;;4.70;0.90;;;;;;;;;;4981303;28;20033;-77
2022/05/12 09:42:45;;;;;;;6.53;0.85;;;;;;;;;;5011658;28;20026;-78
2022/05/12 09:45:25;;;;;;;2.20;1.02;;;;;;;;;;4994748;28;20037;-77
2022/05/12 09:48:06;;;;;;;3.97;0.80;;;;;;;;;;5010917;28;20021;-77
2022/05/12 09:50:32;;;;;;;2.55;0.80;;;;;;;;;;4994799;28;20034;-76
2022/05/12 09:53:00;;;;;;;5.22;0.88;;;;;;;;;;5011877;28;20069;-77
2022/05/12 09:55:36;;;;;;;5.50;0.70;;;;;;;;;;4988724;28;20034;-75
2022/05/12 09:58:14;;;;;;;4.75;0.70;;;;;;;;;;5008207;28;20093;-77
2022/05/12 10:00:42;;;;;;;3.58;0.68;;;;;;;;;;5012066;28;20036;-78
2022/05/12 10:08:44;;;;;;;3.70;0.98;;;;;;;;;;4994013;28;20049;-77
2022/05/12 10:11:14;;;;;;;12.18;2.85;;;;;;;;;;4962616;28;20022;-77
2022/05/12 10:13:48;;;;;;;4.50;1.10;;;;;;;;;;4992556;28;20103;-76
2022/05/12 10:16:16;;;;;;;4.90;0.80;;;;;;;;;;4986106;28;20433;-79
2022/05/12 10:18:44;;;;;;;4.63;0.60;;;;;;;;;;4978410;28;20477;-78
2022/05/12 10:21:13;;;;;;;7.30;0.85;;;;;;;;;;4993866;28;20493;-79
2022/05/12 10:23:38;;;;;;;;;;;;;;;;;;4993992;28;20100;-78
2022/05/12 10:26:07;;;;;;;4.50;0.90;;;;;;;;;;4994060;28;19914;-76
2022/05/12 10:28:42;;;;;;;1.73;0.68;;;;;;;;;;5010472;28;20056;-78
2022/05/12 10:31:28;;;;;;;0.80;0.40;;;;;;;;;;5002495;28;20053;-76
2022/05/12 10:34:02;;;;;;;3.90;1.30;;;;;;;;;;5004510;28;20041;-79
2022/05/12 10:36:47;;;;;;;6.13;0.80;;;;;;;;;;4994293;28;20026;-77
2022/05/12 10:39:20;;;;;;;3.80;0.70;;;;;;;;;;5011468;28;20093;-76
2022/05/12 10:41:54;;;;;;;4.30;0.75;;;;;;;;;;5010462;28;20105;-76
2022/05/12 10:44:38;;;;;;;1.50;0.50;;;;;;;;;;5011004;28;20088;-79
2022/05/12 10:47:23;;;;;;;4.65;0.50;;;;;;;;;;5001682;28;20030;-77
2022/05/12 10:49:57;;;;;;;3.13;0.60;;;;;;;;;;4975409;28;20038;-78
2022/05/12 10:52:34;;;;;;;4.35;1.00;;;;;;;;;;4992234;28;20058;-78
2022/05/12 10:54:59;;;;;;;3.00;0.70;;;;;;;;;;4973974;28;20037;-78
2022/05/12 10:57:31;;;;;;;4.18;0.75;;;;;;;;;;4990691;28;20518;-77
2022/05/12 11:00:18;;;;;;;7.25;0.82;;;;;;;;;;4991846;28;20031;-78
2022/05/12 11:02:50;;;;;;;3.15;0.70;;;;;;;;;;4975266;28;20212;-78
2022/05/12 11:05:21;;;;;;;7.40;1.15;;;;;;;;;;5011153;28;20084;-77
2022/05/12 11:07:52;;;;;;;3.92;0.80;;;;;;;;;;4977191;28;20121;-78
2022/05/12 11:10:39;;;;;;;2.20;0.45;;;;;;;;;;4995299;28;20168;-78
2022/05/12 11:13:10;;;;;;;7.75;0.98;;;;;;;;;;4994498;28;20089;-77
2022/05/12 11:15:46;;;;;;;2.40;0.57;;;;;;;;;;4977907;28;20037;-76
2022/05/12 11:18:16;;;;;;;2.70;0.50;;;;;;;;;;4981942;28;20034;-78
2022/05/12 11:20:44;;;;;;;1.77;0.47;;;;;;;;;;5014106;28;20064;-76
2022/05/12 11:23:15;;;;;;;1.50;0.50;;;;;;;;;;5013327;28;20111;-77
2022/05/12 11:25:46;;;;;;;2.13;0.50;;;;;;;;;;4997369;28;20058;-78
2022/05/12 11:31:20;;;;;;;2.38;0.50;;;;;;;;;;5013429;28;20405;-76
2022/05/12 11:33:49;;;;;;;11.90;1.95;;;;;;;;;;5011646;28;20026;-78
2022/05/12 11:36:16;;;;;;;3.22;0.60;;;;;;;;;;5004831;28;20018;-79
2022/05/12 11:38:43;;;;;;;2.13;0.60;;;;;;;;;;4996511;28;20040;-78
2022/05/12 11:41:27;;;;;;;5.03;0.83;;;;;;;;;;4980875;28;20042;-79
2022/05/12 11:47:04;;;;;;;4.70;1.00;;;;;;;;;;5014282;28;20092;-79
2022/05/12 11:49:43;;;;;;;5.28;0.80;;;;;;;;;;5014103;28;20034;-78
2022/05/12 11:52:19;;;;;;;1.05;0.45;;;;;;;;;;4989941;28;20112;-77
2022/05/12 11:54:52;;;;;;;4.22;0.60;;;;;;;;;;4994301;28;20026;-77
2022/05/12 11:57:23;;;;;;;1.27;0.60;;;;;;;;;;4994565;28;20048;-77
2022/05/12 11:59:56;;;;;;;2.63;0.60;;;;;;;;;;4993205;28;20038;-78
2022/05/12 12:02:27;;;;;;;2.42;0.80;;;;;;;;;;4993291;28;20027;-77
2022/05/12 12:04:53;;;;;;;1.42;0.50;;;;;;;;;;4994211;28;20045;-79
2022/05/12 12:07:31;;;;;;;4.15;0.80;;;;;;;;;;4977048;28;20406;-77
2022/05/12 12:10:02;;;;;;;5.30;0.70;;;;;;;;;;4999885;28;20489;-78
2022/05/12 12:12:40;;;;;;;1.50;0.52;;;;;;;;;;5026798;28;20033;-77
2022/05/12 12:15:07;;;;;;;3.60;0.70;;;;;;;;;;5012369;28;20033;-78
2022/05/12 12:17:34;;;;;;;4.82;1.23;;;;;;;;;;5012469;28;20058;-78
2022/05/12 12:20:11;;;;;;;2.50;0.70;;;;;;;;;;5012807;28;20026;-78
2022/05/12 12:22:45;;;;;;;6.93;0.98;;;;;;;;;;5012339;28;20120;-78
2022/05/12 12:25:18;;;;;;;5.13;0.80;;;;;;;;;;5005577;28;20087;-78
2022/05/12 12:27:44;;;;;;;5.35;1.77;;;;;;;;;;5005586;28;20037;-78
2022/05/12 12:30:22;;;;;;;3.22;1.13;;;;;;;;;;5013262;28;20030;-80
2022/05/12 12:32:51;;;;;;;8.75;1.17;;;;;;;;;;5012855;28;20045;-76
2022/05/12 12:35:28;;;;;;;4.20;1.23;;;;;;;;;;5012365;28;20037;-78
2022/05/12 12:37:54;;;;;;;7.60;1.10;;;;;;;;;;4996311;28;20038;-78
2022/05/12 12:40:32;;;;;;;2.25;0.52;;;;;;;;;;5007266;28;20180;-77
2022/05/12 12:42:58;;;;;;;3.00;0.40;;;;;;;;;;5004457;28;20504;-78
2022/05/12 12:45:24;;;;;;;3.33;0.82;;;;;;;;;;5013992;28;20034;-80
2022/05/12 12:48:09;;;;;;;3.67;0.80;;;;;;;;;;5012790;28;20058;-79
2022/05/12 12:50:42;;;;;;;4.47;0.90;;;;;;;;;;5012234;28;20033;-79
2022/05/12 12:56:30;;;;;;;3.90;0.90;;;;;;;;;;4996722;28;20516;-79
2022/05/12 12:56:30;;;;;;;2.97;0.95;;;;;;;;;;4996938;28;20552;-80
2022/05/12 12:58:57;;;;;;;2.33;0.68;;;;;;;;;;5008347;28;20076;-81
2022/05/12 13:01:22;;;;;;;4.30;0.80;;;;;;;;;;5009136;28;20037;-80
2022/05/12 13:05:40;;;;;;;3.03;1.00;;;;;;;;;;5069573;28;20407;-78
2022/05/12 13:08:08;;;;;;;1.98;0.70;;;;;;;;;;5068140;28;20067;-79
2022/05/12 13:10:45;;;;;;;1.98;0.50;;;;;;;;;;5071706;28;20037;-79
2022/05/12 13:15:00;;;;;;;2.60;0.80;;;;;;;;;;5079478;27;1197176;-78
2022/05/12 13:17:25;;;;;;;7.82;0.90;;;;;;;;;;5105540;28;20115;-79
2022/05/12 13:19:51;;;;;;;7.85;1.30;;;;;;;;;;5066590;28;20532;-79
2022/05/12 13:22:40;;;;;;;5.13;1.08;;;;;;;;;;5089643;28;20028;-79
2022/05/12 13:25:09;;;;;;;5.72;0.90;;;;;;;;;;5086793;28;20043;-79
2022/05/12 13:27:38;;;;;;;5.07;1.38;;;;;;;;;;5090542;28;20510;-76
2022/05/12 13:30:05;;;;;;;2.53;0.90;;;;;;;;;;5108804;28;20119;-79
2022/05/12 13:32:36;;;;;;;3.58;0.90;;;;;;;;;;5074051;28;20115;-76
2022/05/12 13:35:06;;;;;;;5.38;1.05;;;;;;;;;;5109695;28;20179;-79
2022/05/12 13:37:32;;;;;;;3.55;0.82;;;;;;;;;;5091309;28;20091;-79
2022/05/12 13:40:00;;;;;;;2.67;0.80;;;;;;;;;;5091887;28;20177;-78
2022/05/12 13:42:34;;;;;;;3.75;0.73;;;;;;;;;;5091225;28;20028;-78
2022/05/12 13:45:07;;;;;;;1.52;0.60;;;;;;;;;;5109353;28;20078;-78
2022/05/12 13:47:37;;;;;;;8.07;1.10;;;;;;;;;;5091569;28;20027;-79
2022/05/12 13:50:09;;;;;;;6.88;1.25;;;;;;;;;;5091234;28;20038;-79
2022/05/12 13:52:41;;;;;;;5.97;1.00;;;;;;;;;;5077161;28;20042;-77
2022/05/12 13:55:14;;;;;;;4.40;0.90;;;;;;;;;;5076222;28;20517;-78
2022/05/12 13:57:51;;;;;;;3.60;0.77;;;;;;;;;;5110393;28;20024;-79
2022/05/12 14:00:23;;;;;;;9.65;1.50;;;;;;;;;;5109876;28;20596;-77
2022/05/12 14:02:50;;;;;;;3.70;1.13;;;;;;;;;;5109051;28;20491;-77
2022/05/12 14:05:19;;;;;;;7.60;1.23;;;;;;;;;;5074608;28;20040;-79
2022/05/12 14:08:05;;;;;;;4.95;0.90;;;;;;;;;;5091179;28;20450;-78
2022/05/12 14:10:37;;;;;;;2.72;1.00;;;;;;;;;;5101661;28;20043;-79
2022/05/12 14:21:21;;;;;;;4.97;1.07;;;;;;;;;;5091250;28;20107;-77
2022/05/12 14:23:47;;;;;;;3.03;0.90;;;;;;;;;;5057256;28;20268;-77
2022/05/12 14:26:12;;;;;;;1.92;0.70;;;;;;;;;;5077660;28;20034;-78
2022/05/12 14:28:38;;;;;;;3.90;0.85;;;;;;;;;;5077078;28;20044;-78
2022/05/12 14:31:04;;;;;;;4.68;1.02;;;;;;;;;;5060857;28;20533;-78
2022/05/12 14:33:31;;;;;;;7.55;1.38;;;;;;;;;;5076391;28;20032;-79
2022/05/12 14:35:56;;;;;;;5.63;1.52;;;;;;;;;;5096507;28;20035;-78
2022/05/12 14:38:24;;;;;;;4.72;0.88;;;;;;;;;;5077606;28;20428;-78
2022/05/12 14:40:50;;;;;;;3.25;1.08;;;;;;;;;;5061708;28;20032;-79
2022/05/12 14:43:15;;;;;;;6.20;0.80;;;;;;;;;;5095586;28;20039;-77
2022/05/12 14:45:41;;;;;;;7.35;1.40;;;;;;;;;;5079401;28;20036;-78
2022/05/12 14:48:10;;;;;;;4.30;1.15;;;;;;;;;;5066265;28;20475;-79
2022/05/12 14:50:36;;;;;;;2.88;1.00;;;;;;;;;;5061059;28;20070;-78
2022/05/12 14:53:08;;;;;;;9.25;1.20;;;;;;;;;;5076079;28;20032;-77
2022/05/12 14:55:38;;;;;;;7.18;0.93;;;;;;;;;;5076361;28;20552;-78
2022/05/12 14:58:04;;;;;;;8.00;1.08;;;;;;;;;;5076462;28;20028;-78
2022/05/12 15:00:30;;;;;;;5.30;0.80;;;;;;;;;;5094829;28;20028;-78
2022/05/12 15:02:57;;;;;;;4.68;0.90;;;;;;;;;;5059551;28;20039;-78
2022/05/12 15:05:23;;;;;;;3.90;0.82;;;;;;;;;;5094407;28;20077;-80
2022/05/12 15:07:49;;;;;;;3.22;1.10;;;;;;;;;;5094156;28;20043;-78
2022/05/12 15:10:15;;;;;;;4.13;1.23;;;;;;;;;;5096056;28;20035;-78
2022/05/12 15:12:41;;;;;;;2.95;0.90;;;;;;;;;;5095979;28;20467;-78
2022/05/12 15:15:07;;;;;;;6.20;1.08;;;;;;;;;;5059632;28;20028;-79
2022/05/12 15:17:34;;;;;;;6.45;1.00;;;;;;;;;;5075741;28;20035;-78
2022/05/12 15:20:00;;;;;;;6.35;1.35;;;;;;;;;;5093572;28;20055;-77
2022/05/12 15:22:26;;;;;;;8.88;0.98;;;;;;;;;;5058894;28;20035;-78
2022/05/12 15:24:54;;;;;;;2.22;0.80;;;;;;;;;;5075668;28;20028;-79
2022/05/12 15:27:24;;;;;;;3.10;1.02;;;;;;;;;;5075651;28;20506;-78
2022/05/12 15:29:50;;;;;;;8.18;1.17;;;;;;;;;;5059231;28;20127;-78